Lansing, Michigan
Current Conditions -  °F | °C
As of 12:53 PM on Saturday 25 Oct 2014 (Local Time) from KLAN Reporting Station
Scattered Clouds Scattered Clouds  
Wind Chill: 61°   Ceiling: Unl
Heat Index: 61°   Visibility: 7mi
Dew Point: 50°   Wind: 15mph
Humidity: 67%   Direction: 260°W
Pressure: 29.81"   Gusts: NA
Location:  42.73°N, 84.55°W
Report Text: KLAN 251653Z 26013KT 7SM SCT026 16/10 A2981 RMK AO2 PRESFR SLP096 T01610100
Loading
Personal Weather Stations






























Interactive Weather Map
Tropical Storm Tracking
New forecast layout! Learn more

10-Day Weather Forecast

Advertisements
Track Severe Weather on mobile